Time;durP1;ratioP1;P1;durP2;ratioP2;P2;SDS_P1;SDS_P2;PMS_P1;PMS_P2;Temp;Humidity;BMP_temperature;BMP_pressure;BME280_temperature;BME280_humidity;BME280_pressure;Samples;Min_cycle;Max_cycle;Signal;HPM_P1;HPM_P2
2023/08/21 00:07:35;;;;;;;;;;;21.90;99.90;;;;;;20809934;28;19917;-74
2023/08/21 00:17:36;;;;;;;;;;;21.80;99.90;;;;;;20829604;28;20012;-74
2023/08/21 00:27:36;;;;;;;;;;;21.60;99.90;;;;;;20827850;28;19917;-74
2023/08/21 00:37:37;;;;;;;;;;;21.60;99.90;;;;;;20804254;28;20313;-74
2023/08/21 00:47:38;;;;;;;;;;;21.40;99.90;;;;;;20826768;28;19920;-74
2023/08/21 00:57:39;;;;;;;;;;;21.30;99.90;;;;;;20808287;28;19917;-74
2023/08/21 01:07:48;;;;;;;;;;;21.30;99.90;;;;;;20807416;28;19913;-74
2023/08/21 01:17:49;;;;;;;;;;;21.00;99.90;;;;;;20790165;28;20386;-74
2023/08/21 01:27:50;;;;;;;;;;;21.20;99.90;;;;;;20805842;28;20040;-74
2023/08/21 01:37:51;;;;;;;;;;;21.10;99.90;;;;;;20806194;28;19924;-74
2023/08/21 01:47:52;;;;;;;;;;;21.10;99.90;;;;;;20823730;28;19920;-74
2023/08/21 01:57:52;;;;;;;;;;;21.10;99.90;;;;;;20823091;28;20269;-74
2023/08/21 02:07:53;;;;;;;;;;;20.90;99.90;;;;;;20801171;28;19971;-74
2023/08/21 02:17:54;;;;;;;;;;;20.80;99.90;;;;;;20812777;28;19971;-74
2023/08/21 02:27:55;;;;;;;;;;;20.70;99.90;;;;;;20810841;28;19913;-74
2023/08/21 02:37:55;;;;;;;;;;;20.60;99.90;;;;;;20841826;23;19933;-74
2023/08/21 02:47:56;;;;;;;;;;;20.40;99.90;;;;;;20828867;28;20338;-74
2023/08/21 02:57:56;;;;;;;;;;;20.40;99.90;;;;;;20833793;28;19921;-74
2023/08/21 03:07:57;;;;;;;;;;;20.30;99.90;;;;;;20829135;28;19917;-74
2023/08/21 03:17:59;;;;;;;;;;;20.30;99.90;;;;;;20829319;28;20071;-73
2023/08/21 03:27:59;;;;;;;;;;;20.30;99.90;;;;;;20833082;28;20391;-74
2023/08/21 03:38:01;;;;;;;;;;;20.10;99.90;;;;;;20830906;28;19917;-73
2023/08/21 03:48:07;;;;;;;;;;;20.00;99.90;;;;;;20830038;28;20056;-73
2023/08/21 03:58:08;;;;;;;;;;;19.90;99.90;;;;;;20830620;28;19975;-74
2023/08/21 04:08:09;;;;;;;;;;;19.80;99.90;;;;;;20821113;28;19913;-74
2023/08/21 04:18:09;;;;;;;;;;;19.80;99.90;;;;;;20826655;28;20423;-73
2023/08/21 04:28:10;;;;;;;;;;;19.80;99.90;;;;;;20828452;28;19959;-72
2023/08/21 04:38:13;;;;;;;;;;;19.80;99.90;;;;;;20824224;28;20019;-73
2023/08/21 04:48:14;;;;;;;;;;;19.50;99.90;;;;;;20816465;28;20375;-73
2023/08/21 04:58:14;;;;;;;;;;;19.60;99.90;;;;;;20812941;28;20466;-74
2023/08/21 05:08:16;;;;;;;;;;;19.80;99.90;;;;;;20824307;28;19917;-74
2023/08/21 05:18:17;;;;;;;;;;;19.90;99.90;;;;;;20823772;28;20576;-74
2023/08/21 05:28:18;;;;;;;;;;;19.80;99.90;;;;;;20811751;28;19921;-74
2023/08/21 05:38:19;;;;;;;;;;;20.30;99.90;;;;;;20809561;28;19917;-73
2023/08/21 05:48:19;;;;;;;;;;;20.80;99.90;;;;;;20821442;28;19913;-74
2023/08/21 05:58:20;;;;;;;;;;;21.30;99.90;;;;;;20823602;28;20345;-74
2023/08/21 06:08:21;;;;;;;;;;;21.70;99.90;;;;;;20836140;28;20004;-74
2023/08/21 06:18:22;;;;;;;;;;;22.20;99.90;;;;;;20837570;28;19924;-74
2023/08/21 06:28:23;;;;;;;;;;;22.70;99.90;;;;;;20838089;28;19920;-73
2023/08/21 06:38:23;;;;;;;;;;;23.30;99.90;;;;;;20836988;28;19963;-73
2023/08/21 06:48:26;;;;;;;;;;;23.70;99.90;;;;;;20835472;28;19951;-74
2023/08/21 06:58:27;;;;;;;;;;;24.40;99.90;;;;;;20834317;28;19921;-71
2023/08/21 07:08:28;;;;;;;;;;;24.90;99.90;;;;;;20833944;28;19924;-74
2023/08/21 07:18:31;;;;;;;;;;;25.30;99.90;;;;;;20833537;28;19917;-73
2023/08/21 07:28:32;;;;;;;;;;;26.10;99.90;;;;;;20833326;28;19913;-74
2023/08/21 07:38:33;;;;;;;;;;;27.00;99.90;;;;;;20832980;28;19971;-74
2023/08/21 07:48:35;;;;;;;;;;;27.20;99.90;;;;;;20831620;28;19967;-73
2023/08/21 07:58:35;;;;;;;;;;;27.40;99.90;;;;;;20830717;28;20422;-73
2023/08/21 08:08:36;;;;;;;;;;;28.00;99.90;;;;;;20828761;28;20004;-73
2023/08/21 08:18:37;;;;;;;;;;;28.00;99.90;;;;;;20829357;28;20414;-73
2023/08/21 08:28:37;;;;;;;;;;;29.20;99.90;;;;;;20820945;28;20372;-73
2023/08/21 08:38:38;;;;;;;;;;;28.70;99.90;;;;;;20828021;28;19928;-73
2023/08/21 08:48:39;;;;;;;;;;;30.10;99.90;;;;;;20827086;28;20290;-73
2023/08/21 08:58:42;;;;;;;;;;;29.70;99.90;;;;;;20826315;28;19917;-72
2023/08/21 09:08:53;;;;;;;;;;;30.10;99.90;;;;;;20825913;28;19921;-73
2023/08/21 09:18:56;;;;;;;;;;;30.80;99.90;;;;;;20825284;28;19921;-73
2023/08/21 09:28:58;;;;;;;;;;;32.40;99.90;;;;;;20823717;28;19913;-73
2023/08/21 09:38:59;;;;;;;;;;;31.90;99.90;;;;;;20834139;28;19943;-74
2023/08/21 09:49:02;;;;;;;;;;;33.40;99.90;;;;;;20840979;28;19992;-74
2023/08/21 09:59:03;;;;;;;;;;;33.00;99.90;;;;;;20839567;28;19917;-74
2023/08/21 10:09:04;;;;;;;;;;;34.20;99.90;;;;;;20839190;28;19971;-74
2023/08/21 10:19:09;;;;;;;;;;;34.20;99.90;;;;;;20838715;28;19917;-75
2023/08/21 10:29:10;;;;;;;;;;;35.00;99.90;;;;;;20837685;28;19953;-71
2023/08/21 10:39:17;;;;;;;;;;;35.20;99.90;;;;;;20828333;28;20386;-74
2023/08/21 10:49:18;;;;;;;;;;;34.90;99.90;;;;;;20835781;28;20418;-71
2023/08/21 10:59:18;;;;;;;;;;;34.90;99.90;;;;;;20834172;28;19917;-74
2023/08/21 11:09:19;;;;;;;;;;;34.50;99.90;;;;;;20834931;28;20330;-74
2023/08/21 11:19:19;;;;;;;;;;;34.80;99.90;;;;;;20834284;28;19917;-74
2023/08/21 11:29:20;;;;;;;;;;;34.90;99.90;;;;;;20832248;28;20002;-74
2023/08/21 11:39:22;;;;;;;;;;;34.20;99.90;;;;;;20817931;28;19924;-74
2023/08/21 11:49:23;;;;;;;;;;;34.40;98.20;;;;;;20814334;28;19967;-75
2023/08/21 11:59:24;;;;;;;;;;;34.90;99.30;;;;;;20829825;28;19923;-75
2023/08/21 12:09:25;;;;;;;;;;;34.40;95.60;;;;;;20830514;28;19961;-74
2023/08/21 12:19:26;;;;;;;;;;;35.90;95.60;;;;;;20829424;28;20398;-74
2023/08/21 12:29:26;;;;;;;;;;;35.30;94.80;;;;;;20828785;28;19917;-74
2023/08/21 12:39:27;;;;;;;;;;;35.00;95.20;;;;;;20827220;28;19917;-74
2023/08/21 12:49:28;;;;;;;;;;;35.20;94.80;;;;;;20825849;28;20376;-75
2023/08/21 12:59:28;;;;;;;;;;;35.10;93.60;;;;;;20892065;28;20375;-74
2023/08/21 13:09:29;;;;;;;;;;;34.70;94.00;;;;;;20907710;28;20004;-74
2023/08/21 13:19:30;;;;;;;;;;;35.10;93.30;;;;;;20905860;28;19917;-74
2023/08/21 13:29:33;;;;;;;;;;;35.10;91.60;;;;;;20855174;28;20226;-74
2023/08/21 13:39:33;;;;;;;;;;;35.20;91.10;;;;;;20824153;28;20375;-74
2023/08/21 13:49:34;;;;;;;;;;;36.00;91.30;;;;;;20825354;28;19959;-73
2023/08/21 13:59:35;;;;;;;;;;;35.30;90.90;;;;;;20853945;28;20021;-74
2023/08/21 14:09:36;;;;;;;;;;;35.50;89.50;;;;;;20815842;28;20371;-75
2023/08/21 14:19:36;;;;;;;;;;;35.70;88.40;;;;;;20822514;28;20372;-74
2023/08/21 14:29:37;;;;;;;;;;;36.30;88.70;;;;;;20904629;28;19955;-74
2023/08/21 14:39:37;;;;;;;;;;;36.60;84.50;;;;;;21015078;22;19932;-79
2023/08/21 14:49:38;;;;;;;;;;;35.70;90.20;;;;;;21010765;28;20587;-77
2023/08/21 14:59:39;;;;;;;;;;;36.40;88.60;;;;;;21083507;28;19920;-78
2023/08/21 15:09:39;;;;;;;;;;;36.10;89.50;;;;;;21098701;28;19947;-79
2023/08/21 15:19:40;;;;;;;;;;;36.20;85.10;;;;;;21105291;28;20007;-79
2023/08/21 15:29:41;;;;;;;;;;;35.80;83.50;;;;;;20997867;28;19966;-78
2023/08/21 15:39:41;;;;;;;;;;;35.20;87.00;;;;;;21007184;28;19916;-79
2023/08/21 15:49:42;;;;;;;;;;;35.50;88.10;;;;;;21013159;28;19948;-77
2023/08/21 15:59:43;;;;;;;;;;;35.10;90.50;;;;;;20986942;28;19923;-76
2023/08/21 16:09:43;;;;;;;;;;;35.30;89.10;;;;;;21007045;28;19971;-79
2023/08/21 16:19:44;;;;;;;;;;;34.60;90.40;;;;;;21014485;28;19975;-79
2023/08/21 16:29:45;;;;;;;;;;;34.20;91.80;;;;;;21009487;28;19912;-78
2023/08/21 16:39:45;;;;;;;;;;;34.10;91.60;;;;;;21014872;28;19916;-79
2023/08/21 16:49:46;;;;;;;;;;;33.90;92.00;;;;;;21011505;28;20002;-78
2023/08/21 16:59:47;;;;;;;;;;;33.60;92.50;;;;;;21006752;28;19947;-78
2023/08/21 17:09:48;;;;;;;;;;;33.40;93.00;;;;;;21000874;28;19924;-79
2023/08/21 17:19:48;;;;;;;;;;;33.20;93.20;;;;;;20997637;28;19916;-79
2023/08/21 17:29:51;;;;;;;;;;;32.90;94.00;;;;;;20954515;28;19919;-77
2023/08/21 17:39:51;;;;;;;;;;;32.70;94.90;;;;;;20984297;28;19917;-78
2023/08/21 17:49:52;;;;;;;;;;;32.00;98.70;;;;;;20929413;28;19913;-78
2023/08/21 17:59:53;;;;;;;;;;;31.20;99.90;;;;;;20939921;28;19924;-77
2023/08/21 18:09:53;;;;;;;;;;;30.30;99.90;;;;;;20995727;28;19921;-78
2023/08/21 18:19:54;;;;;;;;;;;29.70;99.90;;;;;;20994118;28;19939;-78
2023/08/21 18:29:55;;;;;;;;;;;29.20;99.90;;;;;;20989988;28;19936;-78
2023/08/21 18:39:55;;;;;;;;;;;28.70;99.90;;;;;;20996735;28;19916;-78
2023/08/21 18:49:56;;;;;;;;;;;28.60;99.90;;;;;;20977676;28;19948;-78
2023/08/21 18:59:56;;;;;;;;;;;28.20;99.90;;;;;;20955352;28;19921;-79
2023/08/21 19:09:57;;;;;;;;;;;27.50;99.90;;;;;;20968037;28;19938;-79
2023/08/21 19:19:58;;;;;;;;;;;27.30;99.90;;;;;;20962566;28;20007;-79
2023/08/21 19:29:58;;;;;;;;;;;26.90;99.90;;;;;;20963542;28;19913;-79
2023/08/21 19:39:59;;;;;;;;;;;26.80;99.90;;;;;;20972477;28;19916;-80
2023/08/21 19:50:01;;;;;;;;;;;26.70;99.90;;;;;;20964577;28;19913;-79
2023/08/21 20:00:02;;;;;;;;;;;26.00;99.90;;;;;;20921519;28;19917;-79
2023/08/21 20:10:07;;;;;;;;;;;25.70;99.90;;;;;;20966057;28;19913;-79
2023/08/21 20:20:12;;;;;;;;;;;26.00;99.90;;;;;;20953837;28;20423;-77
2023/08/21 20:30:12;;;;;;;;;;;26.00;99.90;;;;;;20943629;28;20538;-79
2023/08/21 20:40:15;;;;;;;;;;;26.30;99.90;;;;;;20860447;22;19965;-87
2023/08/21 20:50:15;;;;;;;;;;;26.20;99.90;;;;;;20770806;28;19992;-86
2023/08/21 21:00:16;;;;;;;;;;;25.30;99.90;;;;;;20736207;28;19944;-86
2023/08/21 21:10:17;;;;;;;;;;;25.40;99.90;;;;;;20757183;28;19913;-86
2023/08/21 21:20:18;;;;;;;;;;;25.30;99.90;;;;;;20758590;28;20003;-85
2023/08/21 21:30:19;;;;;;;;;;;25.20;99.90;;;;;;20763813;28;19913;-88
2023/08/21 21:40:20;;;;;;;;;;;24.90;99.90;;;;;;20746743;28;19927;-86
2023/08/21 21:50:20;;;;;;;;;;;24.50;99.90;;;;;;20760655;28;19917;-85
2023/08/21 22:00:21;;;;;;;;;;;24.10;99.90;;;;;;20781448;28;19918;-87
2023/08/21 22:10:22;;;;;;;;;;;23.70;99.90;;;;;;20805797;28;19937;-87
2023/08/21 22:20:22;;;;;;;;;;;23.50;99.90;;;;;;20825589;28;19921;-85
2023/08/21 22:30:23;;;;;;;;;;;23.40;99.90;;;;;;20809594;28;20400;-86
2023/08/21 22:40:28;;;;;;;;;;;23.40;99.90;;;;;;20748736;28;19918;-85
2023/08/21 22:50:28;;;;;;;;;;;23.20;99.90;;;;;;20740399;28;19939;-84
2023/08/21 23:00:29;;;;;;;;;;;22.90;99.90;;;;;;20756088;28;19941;-85
2023/08/21 23:10:30;;;;;;;;;;;22.90;99.90;;;;;;20741495;28;19917;-85
2023/08/21 23:20:30;;;;;;;;;;;22.50;99.90;;;;;;20728904;28;19917;-87
2023/08/21 23:30:31;;;;;;;;;;;22.30;99.90;;;;;;20755425;28;19913;-84
2023/08/21 23:40:32;;;;;;;;;;;22.40;99.90;;;;;;20755719;28;19925;-85
2023/08/21 23:50:33;;;;;;;;;;;22.50;99.90;;;;;;20731076;28;20289;-86
